nws-alerts: Checking more than four warning/county codes can delay the loading of your pages. You should use a cron job to get the data.
EllijayWeather Station Historical Data
Daily Summary for August 24, 2018 Units:  English    Metric   Both
Daily Weekly Monthly Yearly Custom
  High: Low: Average:
Temperature: 77.2 °F 57.4 °F 66.1 °F
Dew Point: 66.6 °F 55.6 °F 60.5 °F
Humidity: 95% 57% 83%
Wind Speed: 2mph 0mph 0.1mph
Wind Gust: 7mph - -
Wind- - SE
Pressure: 30.22 in 30.11 in -
Precipitation: 0 in    
Historical Graphs
 
 
Tabular Data for August 24, 2018
Time Temperature Dew Point Pressure Wind Wind Speed Wind Gust Humidity Rainfall Rate (Hourly) solar
00:04 64 °F 62.2 °F 30.12 in Calm     94% 0 in meteobridge W/m2
00:09 64 °F 62.2 °F 30.12 in Calm     94% 0 in meteobridge W/m2
00:14 63.9 °F 62.1 °F 30.12 in Calm     94% 0 in meteobridge W/m2
00:19 63.9 °F 62.1 °F 30.12 in Calm     94% 0 in meteobridge W/m2
00:24 63.7 °F 61.9 °F 30.12 in Calm     94% 0 in meteobridge W/m2
00:29 63.7 °F 61.9 °F 30.12 in Calm     94% 0 in meteobridge W/m2
00:34 63.5 °F 61.7 °F 30.12 in Calm     94% 0 in meteobridge W/m2
00:39 63.3 °F 61.5 °F 30.12 in Calm     94% 0 in meteobridge W/m2
00:44 63.3 °F 61.5 °F 30.13 in Calm     94% 0 in meteobridge W/m2
00:49 63.3 °F 61.5 °F 30.12 in Calm     94% 0 in meteobridge W/m2
00:54 63.1 °F 61.3 °F 30.12 in Calm     94% 0 in meteobridge W/m2
00:59 63.1 °F 61.3 °F 30.12 in Calm     94% 0 in meteobridge W/m2
01:04 63.1 °F 61.3 °F 30.12 in Calm     94% 0 in meteobridge W/m2
01:09 63.1 °F 61.3 °F 30.12 in Calm     94% 0 in meteobridge W/m2
01:14 63.1 °F 61.3 °F 30.12 in Calm     94% 0 in meteobridge W/m2
01:19 63 °F 61.2 °F 30.12 in Calm     94% 0 in meteobridge W/m2
01:24 63 °F 61.2 °F 30.11 in Calm     94% 0 in meteobridge W/m2
01:29 63 °F 61.2 °F 30.11 in Calm     94% 0 in meteobridge W/m2
01:34 63 °F 61.2 °F 30.11 in Calm     94% 0 in meteobridge W/m2
01:39 62.8 °F 61 °F 30.11 in Calm     94% 0 in meteobridge W/m2
01:44 62.8 °F 61 °F 30.11 in Calm     94% 0 in meteobridge W/m2
01:49 62.6 °F 60.8 °F 30.11 in Calm     94% 0 in meteobridge W/m2
01:54 62.6 °F 60.8 °F 30.11 in Calm     94% 0 in meteobridge W/m2
01:59 62.4 °F 60.6 °F 30.11 in Calm     94% 0 in meteobridge W/m2
02:04 62.4 °F 61 °F 30.11 in Calm     95% 0 in meteobridge W/m2
02:09 62.2 °F 60.8 °F 30.11 in Calm     95% 0 in meteobridge W/m2
02:14 62.2 °F 60.8 °F 30.11 in Calm     95% 0 in meteobridge W/m2
02:19 62.1 °F 60.6 °F 30.11 in Calm     95% 0 in meteobridge W/m2
02:24 62.1 °F 60.3 °F 30.11 in Calm     94% 0 in meteobridge W/m2
02:29 61.9 °F 60.1 °F 30.11 in Calm     94% 0 in meteobridge W/m2
02:34 61.7 °F 59.9 °F 30.11 in Calm     94% 0 in meteobridge W/m2
02:39 61.5 °F 60.1 °F 30.11 in Calm     95% 0 in meteobridge W/m2
02:44 61.5 °F 60.1 °F 30.11 in Calm     95% 0 in meteobridge W/m2
02:49 61.3 °F 59.9 °F 30.11 in Calm     95% 0 in meteobridge W/m2
02:54 61.3 °F 59.5 °F 30.11 in Calm     94% 0 in meteobridge W/m2
02:59 61.2 °F 59.4 °F 30.11 in Calm     94% 0 in meteobridge W/m2
03:04 61.2 °F 59.4 °F 30.11 in Calm     94% 0 in meteobridge W/m2
03:09 61 °F 59.5 °F 30.11 in Calm     95% 0 in meteobridge W/m2
03:14 60.8 °F 59.4 °F 30.11 in Calm     95% 0 in meteobridge W/m2
03:19 60.8 °F 59.4 °F 30.11 in Calm     95% 0 in meteobridge W/m2
03:24 61 °F 59.5 °F 30.11 in Calm     95% 0 in meteobridge W/m2
03:29 61 °F 59.5 °F 30.11 in Calm     95% 0 in meteobridge W/m2
03:34 61 °F 59.5 °F 30.11 in Calm     95% 0 in meteobridge W/m2
03:39 61 °F 59.2 °F 30.11 in Calm     94% 0 in meteobridge W/m2
03:44 61 °F 59.2 °F 30.11 in Calm     94% 0 in meteobridge W/m2
03:49 61 °F 59.2 °F 30.11 in Calm     94% 0 in meteobridge W/m2
03:54 61 °F 59.2 °F 30.11 in Calm     94% 0 in meteobridge W/m2
03:59 60.6 °F 58.8 °F 30.11 in Calm     94% 0 in meteobridge W/m2
04:04 60.8 °F 59 °F 30.11 in Calm     94% 0 in meteobridge W/m2
04:09 60.8 °F 59 °F 30.11 in Calm     94% 0 in meteobridge W/m2
04:14 60.8 °F 59 °F 30.11 in Calm     94% 0 in meteobridge W/m2
04:19 60.6 °F 58.8 °F 30.11 in Calm     94% 0 in meteobridge W/m2
04:24 60.6 °F 58.8 °F 30.11 in Calm     94% 0 in meteobridge W/m2
04:29 60.4 °F 58.6 °F 30.11 in Calm     94% 0 in meteobridge W/m2
04:34 60.4 °F 58.6 °F 30.11 in Calm     94% 0 in meteobridge W/m2
04:39 60.3 °F 58.5 °F 30.11 in Calm     94% 0 in meteobridge W/m2
04:44 60.3 °F 58.5 °F 30.11 in Calm     94% 0 in meteobridge W/m2
04:49 60.3 °F 58.5 °F 30.11 in Calm     94% 0 in meteobridge W/m2
04:54 60.3 °F 58.5 °F 30.12 in Calm     94% 0 in meteobridge W/m2
04:59 60.1 °F 58.3 °F 30.11 in Calm     94% 0 in meteobridge W/m2
05:04 60.1 °F 58.3 °F 30.12 in Calm     94% 0 in meteobridge W/m2
05:09 59.9 °F 58.1 °F 30.11 in Calm     94% 0 in meteobridge W/m2
05:14 59.7 °F 57.7 °F 30.12 in Calm     93% 0 in meteobridge W/m2
05:19 59.5 °F 57.6 °F 30.12 in Calm     93% 0 in meteobridge W/m2
05:24 59.5 °F 57.6 °F 30.12 in Calm     93% 0 in meteobridge W/m2
05:29 59.5 °F 57.6 °F 30.12 in Calm     93% 0 in meteobridge W/m2
05:34 59.5 °F 57.7 °F 30.12 in Calm     94% 0 in meteobridge W/m2
05:39 59.4 °F 57.6 °F 30.12 in Calm     94% 0 in meteobridge W/m2
05:44 59.2 °F 57.2 °F 30.12 in Calm     93% 0 in meteobridge W/m2
05:49 59 °F 57 °F 30.12 in Calm     93% 0 in meteobridge W/m2
05:54 58.8 °F 56.8 °F 30.12 in Calm     93% 0 in meteobridge W/m2
05:59 58.6 °F 56.7 °F 30.12 in Calm     93% 0 in meteobridge W/m2
06:04 58.6 °F 56.8 °F 30.12 in Calm     94% 0 in meteobridge W/m2
06:09 58.6 °F 56.7 °F 30.13 in Calm     93% 0 in meteobridge W/m2
06:14 58.5 °F 56.5 °F 30.13 in Calm     93% 0 in meteobridge W/m2
06:19 58.3 °F 56.5 °F 30.13 in Calm     94% 0 in meteobridge W/m2
06:24 58.3 °F 56.5 °F 30.13 in Calm     94% 0 in meteobridge W/m2
06:29 58.1 °F 56.3 °F 30.13 in Calm     94% 0 in meteobridge W/m2
06:34 57.9 °F 56.1 °F 30.13 in Calm     94% 0 in meteobridge W/m2
06:39 57.9 °F 56.1 °F 30.13 in Calm     94% 0 in meteobridge W/m2
06:44 57.7 °F 55.9 °F 30.13 in Calm     94% 0 in meteobridge W/m2
06:49 57.6 °F 55.8 °F 30.14 in Calm     94% 0 in meteobridge W/m2
06:54 57.6 °F 55.8 °F 30.14 in Calm     94% 0 in meteobridge W/m2
06:59 57.6 °F 55.8 °F 30.14 in Calm     94% 0 in meteobridge W/m2
07:04 57.6 °F 55.8 °F 30.13 in Calm     94% 0 in meteobridge W/m2
07:09 57.6 °F 55.8 °F 30.14 in Calm     94% 0 in meteobridge W/m2
07:14 57.6 °F 55.8 °F 30.14 in Calm     94% 0 in meteobridge W/m2
07:19 57.4 °F 55.6 °F 30.14 in Calm     94% 0 in meteobridge W/m2
07:24 57.6 °F 55.8 °F 30.14 in Calm     94% 0 in meteobridge W/m2
07:29 57.6 °F 55.8 °F 30.14 in Calm     94% 0 in meteobridge W/m2
07:34 57.6 °F 55.8 °F 30.15 in Calm     94% 0 in meteobridge W/m2
07:39 57.7 °F 56.3 °F 30.15 in Calm     95% 0 in meteobridge W/m2
07:44 57.9 °F 56.5 °F 30.15 in Calm     95% 0 in meteobridge W/m2
07:49 58.1 °F 56.7 °F 30.15 in Calm     95% 0 in meteobridge W/m2
07:54 58.3 °F 56.8 °F 30.15 in Calm     95% 0 in meteobridge W/m2
07:59 58.5 °F 57 °F 30.15 in Calm     95% 0 in meteobridge W/m2
08:04 58.6 °F 57.2 °F 30.16 in Calm     95% 0 in meteobridge W/m2
08:09 58.8 °F 57.4 °F 30.16 in Calm     95% 0 in meteobridge W/m2
08:14 59.2 °F 57.7 °F 30.15 in Calm     95% 0 in meteobridge W/m2
08:19 59.5 °F 58.1 °F 30.16 in Calm     95% 0 in meteobridge W/m2
08:24 59.9 °F 58.5 °F 30.16 in Calm     95% 0 in meteobridge W/m2
08:29 60.1 °F 58.6 °F 30.16 in Calm     95% 0 in meteobridge W/m2
08:34 60.4 °F 59 °F 30.16 in Calm     95% 0 in meteobridge W/m2
08:39 60.6 °F 58.8 °F 30.16 in Calm     94% 0 in meteobridge W/m2
08:44 60.8 °F 59 °F 30.17 in Calm     94% 0 in meteobridge W/m2
08:49 61.2 °F 59.4 °F 30.17 in Calm     94% 0 in meteobridge W/m2
08:54 61.3 °F 59.5 °F 30.17 in Calm     94% 0 in meteobridge W/m2
08:59 61.5 °F 59.5 °F 30.18 in Calm     93% 0 in meteobridge W/m2
09:04 62.1 °F 59.4 °F 30.18 in Calm     91% 0 in meteobridge W/m2
09:09 62.8 °F 59.2 °F 30.18 in Calm     88% 0 in meteobridge W/m2
09:14 63.7 °F 58.5 °F 30.18 in Calm     83% 0 in meteobridge W/m2
09:19 65.1 °F 58.8 °F 30.18 in Calm     80% 0 in meteobridge W/m2
09:24 65.7 °F 58.6 °F 30.18 in Calm     78% 0 in meteobridge W/m2
09:29 66 °F 57.9 °F 30.19 in Calm     75% 0 in meteobridge W/m2
09:34 66.7 °F 59 °F 30.19 in Calm     76% 0 in meteobridge W/m2
09:39 66.9 °F 58.3 °F 30.19 in Calm     74% 0 in meteobridge W/m2
09:44 67.5 °F 58.1 °F 30.19 in Calm     72% 0 in meteobridge W/m2
09:49 67.8 °F 58.8 °F 30.19 in Calm     73% 0 in meteobridge W/m2
09:54 68.4 °F 58.3 °F 30.20 in Calm     70% 0 in meteobridge W/m2
09:59 68.7 °F 58.5 °F 30.20 in Calm     70% 0 in meteobridge W/m2
10:04 69.1 °F 58.8 °F 30.20 in Calm     70% 0 in meteobridge W/m2
10:09 69.1 °F 58.1 °F 30.20 in Calm     68% 0 in meteobridge W/m2
10:14 69.4 °F 58.5 °F 30.20 in Calm   1 mph 68% 0 in meteobridge W/m2
10:19 69.6 °F 58.6 °F 30.20 in Calm     68% 0 in meteobridge W/m2
10:24 69.8 °F 58.3 °F 30.20 in Calm   1 mph 67% 0 in meteobridge W/m2
10:29 70.2 °F 59.2 °F 30.21 in Calm   2 mph 68% 0 in meteobridge W/m2
10:34 70.3 °F 59.4 °F 30.21 in Calm     68% 0 in meteobridge W/m2
10:39 70.5 °F 58.1 °F 30.21 in Calm   2 mph 65% 0 in meteobridge W/m2
10:44 70.9 °F 58.5 °F 30.21 in Calm   1 mph 65% 0 in meteobridge W/m2
10:49 71.1 °F 59.5 °F 30.21 in Calm   4 mph 67% 0 in meteobridge W/m2
10:54 71.2 °F 58.8 °F 30.22 in Calm   1 mph 65% 0 in meteobridge W/m2
10:59 71.4 °F 59 °F 30.22 in Calm   1 mph 65% 0 in meteobridge W/m2
11:04 71.8 °F 58.1 °F 30.22 in SE 2 mph 6 mph 62% 0 in meteobridge W/m2
11:09 71.8 °F 59.4 °F 30.22 in Calm   1 mph 65% 0 in meteobridge W/m2
11:14 72.1 °F 59.4 °F 30.22 in SE 0.9 mph 1 mph 64% 0 in meteobridge W/m2
11:19 72.3 °F 59.5 °F 30.22 in Calm   3 mph 64% 0 in meteobridge W/m2
11:24 72.5 °F 57.4 °F 30.22 in SE 2 mph 6 mph 59% 0 in meteobridge W/m2
11:29 72.7 °F 57.6 °F 30.22 in Calm   4 mph 59% 0 in meteobridge W/m2
11:32 72.7 °F 58.5 °F 30.22 in Calm   2 mph 61% 0 in meteobridge W/m2
11:42 73 °F 57.4 °F 30.22 in East 2 mph 5 mph 58% 0 in meteobridge W/m2
11:48 73.2 °F 59 °F 30.22 in Calm   1 mph 61% 0 in meteobridge W/m2
11:53 73.2 °F 58.1 °F 30.21 in ESE 0.9 mph 1 mph 59% 0 in meteobridge W/m2
11:58 73.2 °F 58.1 °F 30.22 in SE 2 mph 4 mph 59% 0 in meteobridge W/m2
12:03 73.2 °F 58.1 °F 30.21 in ESE 0.9 mph 1 mph 59% 0 in meteobridge W/m2
12:10 73.6 °F 58.3 °F 30.21 in Calm   1 mph 59% 0 in meteobridge W/m2
12:15 73.9 °F 58.3 °F 30.22 in ESE 2 mph 6 mph 58% 0 in meteobridge W/m2
12:21 73.8 °F 58.5 °F 30.22 in SE 0.9 mph 7 mph 59% 0 in meteobridge W/m2
12:26 73.8 °F 59 °F 30.22 in SE 0.9 mph 1 mph 60% 0 in meteobridge W/m2
12:31 73.9 °F 59.2 °F 30.22 in Calm   1 mph 60% 0 in meteobridge W/m2
12:36 74.1 °F 59.4 °F 30.22 in Calm   1 mph 60% 0 in meteobridge W/m2
12:42 74.5 °F 61 °F 30.22 in Calm     63% 0 in meteobridge W/m2
12:47 74.8 °F 60.1 °F 30.22 in Calm   2 mph 60% 0 in meteobridge W/m2
12:52 74.8 °F 60.1 °F 30.22 in East 2 mph 2 mph 60% 0 in meteobridge W/m2
15:54 77.2 °F 61.7 °F 30.15 in Calm     59% 0 in meteobridge W/m2
15:59 77.2 °F 61.3 °F 30.15 in Calm     58% 0 in meteobridge W/m2
16:04 77.2 °F 61.3 °F 30.15 in WNW 0.9 mph 1 mph 58% 0 in meteobridge W/m2
16:09 77.2 °F 60.8 °F 30.15 in SE 0.9 mph 1 mph 57% 0 in meteobridge W/m2
16:14 77.2 °F 60.8 °F 30.15 in SE 0.9 mph 1 mph 57% 0 in meteobridge W/m2
16:19 77.2 °F 60.8 °F 30.15 in SE 0.9 mph 4 mph 57% 0 in meteobridge W/m2
16:24 77 °F 61.2 °F 30.15 in SE 0.9 mph 1 mph 58% 0 in meteobridge W/m2
16:29 76.8 °F 61 °F 30.14 in Calm     58% 0 in meteobridge W/m2
16:34 76.8 °F 61.9 °F 30.14 in Calm     60% 0 in meteobridge W/m2
16:39 76.6 °F 62.6 °F 30.14 in Calm   1 mph 62% 0 in meteobridge W/m2
16:44 76.6 °F 61.7 °F 30.14 in Calm   1 mph 60% 0 in meteobridge W/m2
16:49 76.6 °F 61.7 °F 30.14 in Calm     60% 0 in meteobridge W/m2
16:54 76.6 °F 61.7 °F 30.14 in Calm     60% 0 in meteobridge W/m2
16:59 76.8 °F 62.8 °F 30.14 in Calm     62% 0 in meteobridge W/m2
17:04 76.8 °F 62.8 °F 30.14 in Calm     62% 0 in meteobridge W/m2
17:09 76.8 °F 63.3 °F 30.14 in Calm     63% 0 in meteobridge W/m2
17:14 76.6 °F 62.2 °F 30.14 in Calm   1 mph 61% 0 in meteobridge W/m2
17:19 76.6 °F 61.2 °F 30.14 in Calm   1 mph 59% 0 in meteobridge W/m2
17:24 76.6 °F 61.7 °F 30.14 in Calm     60% 0 in meteobridge W/m2
17:29 76.6 °F 62.2 °F 30.14 in Calm     61% 0 in meteobridge W/m2
17:34 76.6 °F 62.6 °F 30.14 in Calm     62% 0 in meteobridge W/m2
17:39 76.3 °F 62.2 °F 30.14 in Calm     62% 0 in meteobridge W/m2
17:44 75.9 °F 62.4 °F 30.14 in Calm     63% 0 in meteobridge W/m2
17:49 75.7 °F 63.5 °F 30.14 in Calm     66% 0 in meteobridge W/m2
17:54 75.6 °F 64.2 °F 30.14 in Calm     68% 0 in meteobridge W/m2
17:59 75.4 °F 64.6 °F 30.14 in Calm     69% 0 in meteobridge W/m2
18:04 75 °F 64.9 °F 30.14 in Calm     71% 0 in meteobridge W/m2
18:09 74.8 °F 64.4 °F 30.14 in Calm     70% 0 in meteobridge W/m2
18:14 74.5 °F 65.3 °F 30.14 in Calm     73% 0 in meteobridge W/m2
18:19 74.5 °F 65.3 °F 30.14 in Calm     73% 0 in meteobridge W/m2
18:24 74.5 °F 64.9 °F 30.14 in Calm     72% 0 in meteobridge W/m2
18:29 74.5 °F 65.3 °F 30.14 in Calm     73% 0 in meteobridge W/m2
18:34 74.3 °F 64.2 °F 30.14 in Calm     71% 0 in meteobridge W/m2
18:39 74.5 °F 64.4 °F 30.14 in Calm     71% 0 in meteobridge W/m2
18:44 74.5 °F 64.9 °F 30.14 in Calm     72% 0 in meteobridge W/m2
18:49 74.3 °F 64.8 °F 30.14 in Calm     72% 0 in meteobridge W/m2
18:54 74.1 °F 64 °F 30.14 in Calm     71% 0 in meteobridge W/m2
18:59 73.9 °F 64.4 °F 30.14 in Calm     72% 0 in meteobridge W/m2
19:04 73.8 °F 65.7 °F 30.14 in Calm     76% 0 in meteobridge W/m2
19:09 73.6 °F 64.8 °F 30.14 in Calm     74% 0 in meteobridge W/m2
19:14 73.2 °F 66 °F 30.14 in Calm     78% 0 in meteobridge W/m2
19:19 73 °F 66.6 °F 30.15 in Calm     80% 0 in meteobridge W/m2
19:24 72.5 °F 66.4 °F 30.15 in Calm     81% 0 in meteobridge W/m2
19:29 72.1 °F 66 °F 30.15 in Calm     81% 0 in meteobridge W/m2
19:34 71.8 °F 65.7 °F 30.15 in Calm     81% 0 in meteobridge W/m2
19:39 71.4 °F 66 °F 30.15 in Calm     83% 0 in meteobridge W/m2
19:44 71.1 °F 66 °F 30.15 in Calm     84% 0 in meteobridge W/m2
19:49 70.7 °F 65.7 °F 30.15 in Calm     84% 0 in meteobridge W/m2
19:54 70.2 °F 65.5 °F 30.15 in Calm     85% 0 in meteobridge W/m2
19:59 69.8 °F 65.1 °F 30.15 in Calm     85% 0 in meteobridge W/m2
20:04 69.4 °F 64.8 °F 30.16 in Calm     85% 0 in meteobridge W/m2
20:09 69.3 °F 64.9 °F 30.15 in Calm     86% 0 in meteobridge W/m2
20:14 69.1 °F 64.8 °F 30.15 in Calm     86% 0 in meteobridge W/m2
20:19 68.9 °F 64.9 °F 30.16 in Calm     87% 0 in meteobridge W/m2
20:24 68.7 °F 64.8 °F 30.16 in Calm     87% 0 in meteobridge W/m2
20:29 68.5 °F 64.8 °F 30.16 in Calm     88% 0 in meteobridge W/m2
20:34 68.4 °F 64.6 °F 30.16 in Calm     88% 0 in meteobridge W/m2
20:39 68.2 °F 64.4 °F 30.16 in Calm     88% 0 in meteobridge W/m2
20:44 67.8 °F 64.2 °F 30.16 in Calm     88% 0 in meteobridge W/m2
20:49 67.6 °F 64 °F 30.16 in Calm     88% 0 in meteobridge W/m2
20:54 67.5 °F 64 °F 30.16 in Calm     89% 0 in meteobridge W/m2
20:58 67.3 °F 63.9 °F 30.16 in Calm     89% 0 in meteobridge W/m2
21:04 66.7 °F 63.7 °F 30.16 in Calm     90% 0 in meteobridge W/m2
21:09 66.6 °F 63.5 °F 30.16 in Calm     90% 0 in meteobridge W/m2
21:14 66.6 °F 63.5 °F 30.16 in Calm     90% 0 in meteobridge W/m2
21:19 66.4 °F 63.3 °F 30.17 in Calm     90% 0 in meteobridge W/m2
21:24 66 °F 63 °F 30.17 in Calm     90% 0 in meteobridge W/m2
21:29 65.8 °F 62.8 °F 30.17 in Calm     90% 0 in meteobridge W/m2
21:34 65.7 °F 63 °F 30.17 in Calm     91% 0 in meteobridge W/m2
21:39 65.7 °F 63 °F 30.17 in Calm     91% 0 in meteobridge W/m2
21:44 65.5 °F 62.8 °F 30.17 in Calm     91% 0 in meteobridge W/m2
21:49 65.1 °F 62.4 °F 30.17 in Calm     91% 0 in meteobridge W/m2
21:54 64.9 °F 62.2 °F 30.17 in Calm     91% 0 in meteobridge W/m2
21:59 64.9 °F 62.2 °F 30.17 in Calm     91% 0 in meteobridge W/m2
22:04 64.8 °F 62.1 °F 30.17 in Calm     91% 0 in meteobridge W/m2
22:09 64.6 °F 61.9 °F 30.17 in Calm     91% 0 in meteobridge W/m2
22:14 64.2 °F 61.5 °F 30.17 in Calm     91% 0 in meteobridge W/m2
22:19 64 °F 61.3 °F 30.17 in Calm     91% 0 in meteobridge W/m2
22:24 64 °F 61.3 °F 30.17 in Calm     91% 0 in meteobridge W/m2
22:29 63.9 °F 61.5 °F 30.17 in Calm     92% 0 in meteobridge W/m2
22:34 63.9 °F 61.5 °F 30.18 in Calm     92% 0 in meteobridge W/m2
22:39 63.7 °F 61.3 °F 30.18 in Calm     92% 0 in meteobridge W/m2
22:44 63.7 °F 61.3 °F 30.18 in Calm     92% 0 in meteobridge W/m2
22:49 63.7 °F 61.3 °F 30.18 in Calm     92% 0 in meteobridge W/m2
22:54 63.5 °F 61.2 °F 30.18 in Calm     92% 0 in meteobridge W/m2
22:59 63.3 °F 61 °F 30.18 in Calm     92% 0 in meteobridge W/m2
23:04 63.3 °F 61 °F 30.18 in Calm     92% 0 in meteobridge W/m2
23:09 63.3 °F 61.3 °F 30.19 in Calm     93% 0 in meteobridge W/m2
23:14 63.3 °F 61.3 °F 30.19 in Calm     93% 0 in meteobridge W/m2
23:19 63.1 °F 61.2 °F 30.18 in Calm     93% 0 in meteobridge W/m2
23:24 63.1 °F 61.2 °F 30.18 in Calm     93% 0 in meteobridge W/m2
23:29 63 °F 60.6 °F 30.18 in Calm     92% 0 in meteobridge W/m2
23:34 63 °F 60.6 °F 30.19 in Calm     92% 0 in meteobridge W/m2
23:39 62.8 °F 60.4 °F 30.19 in Calm     92% 0 in meteobridge W/m2
23:44 62.8 °F 60.8 °F 30.19 in Calm     93% 0 in meteobridge W/m2
23:49 62.8 °F 60.8 °F 30.19 in Calm     93% 0 in meteobridge W/m2
23:54 62.8 °F 60.8 °F 30.19 in Calm     93% 0 in meteobridge W/m2
23:59 62.8 °F 60.8 °F 30.19 in Calm     93% 0 in meteobridge W/m2
EllijayWeather
Compliments of Weather Underground - 2.25 mb